Main page
METAR-TAF:

METAR-TAF

Airports :

Pohnpei, Micronesia

Pohnpei International Airport

latitude: 06-59N, longitude: 158-12E, elevation: 2 m

Current weather observation

The report was made 42 minutes ago, at 09:50 UTC
Wind 7 kt from the East/Northeast
Temperature 28°C
Humidity 84%
Pressure 1009 hPa
Visibility: 24.1 km
Scattered clouds at a height of 1800 ft, Towering cumulus.
Broken clouds at a height of 13000 ft
Overcast at a height of 30000 ft

METAR: PTPN 280950Z 06007KT 15SM SCT018TCU BKN130 OVC300 28/25 A2981 RMK TCU SE-SW

Time: 21:32 (10:32 UTC)

Forecast

The report was made 2 hours and 13 minutes ago, at 08:19 UTC
Forecast valid from 28 at 08 UTC to 29 at 06 UTC
Wind 10 kt from the East/Northeast
Visibility: 10 km
Scattered clouds at a height of 1800 ft
Broken clouds at a height of 13000 ft
Overcast at a height of 30000 ft

TAF: PTPN 280819Z 2808/2906 07010KT P6SM SCT018 BKN130 OVC300

Weather observations and forecasts of more than 4000 airports (METAR and TAF reports).

The available stations are represented by yellow and red dots on the map.

Hover mouse over dot to see the name of the station.

Then click to see weather observations and forecasts.

To change the map : click on the green buttons with a black cross to zoom in, on the green button with a dash to zoom out, or on the green arrows for adjacent maps.


METAR-TAF: